Time;durP1;ratioP1;P1;durP2;ratioP2;P2;SDS_P1;SDS_P2;PMS_P1;PMS_P2;Temp;Humidity;BMP_temperature;BMP_pressure;BME280_temperature;BME280_humidity;BME280_pressure;Samples;Min_cycle;Max_cycle;Signal;HPM_P1;HPM_P2
2023/01/21 00:00:15;;;;;;;;;;;20.20;45.90;;;;;;6034223;29;19924;-60
2023/01/21 00:03:17;;;;;;;;;;;20.00;45.60;;;;;;6034953;29;20381;-59
2023/01/21 00:06:19;;;;;;;;;;;19.60;46.20;;;;;;6034755;29;19931;-61
2023/01/21 00:09:21;;;;;;;;;;;19.70;45.50;;;;;;6034979;29;20049;-60
2023/01/21 00:12:22;;;;;;;;;;;19.60;45.50;;;;;;6035395;29;20407;-59
2023/01/21 00:15:23;;;;;;;;;;;19.90;45.60;;;;;;6034658;29;20018;-60
2023/01/21 00:18:24;;;;;;;;;;;19.70;45.50;;;;;;6034464;29;19931;-60
2023/01/21 00:21:26;;;;;;;;;;;19.50;45.40;;;;;;6034639;29;19928;-60
2023/01/21 00:24:28;;;;;;;;;;;20.30;45.70;;;;;;6035069;29;20381;-60
2023/01/21 00:27:29;;;;;;;;;;;19.70;45.40;;;;;;6034314;29;19942;-60
2023/01/21 00:30:30;;;;;;;;;;;19.70;45.50;;;;;;6034837;29;19924;-60
2023/01/21 00:33:32;;;;;;;;;;;19.60;45.50;;;;;;6034397;29;19928;-60
2023/01/21 00:36:34;;;;;;;;;;;20.10;45.50;;;;;;6034106;29;20022;-60
2023/01/21 00:39:36;;;;;;;;;;;19.80;45.50;;;;;;6034363;29;19924;-61
2023/01/21 00:42:37;;;;;;;;;;;20.20;45.10;;;;;;6034827;29;19924;-60
2023/01/21 00:45:38;;;;;;;;;;;19.60;45.10;;;;;;6034737;29;20373;-60
2023/01/21 00:48:40;;;;;;;;;;;19.80;45.50;;;;;;6034188;29;20084;-60
2023/01/21 00:51:42;;;;;;;;;;;20.10;45.60;;;;;;6034090;29;19957;-61
2023/01/21 00:54:44;;;;;;;;;;;20.00;45.60;;;;;;6034575;29;19977;-60
2023/01/21 00:57:45;;;;;;;;;;;19.90;45.40;;;;;;6034204;29;19931;-60
2023/01/21 01:00:46;;;;;;;;;;;19.70;45.40;;;;;;6034018;29;19976;-60
2023/01/21 01:03:48;;;;;;;;;;;19.80;45.40;;;;;;6034394;29;19931;-60
2023/01/21 01:06:50;;;;;;;;;;;20.60;45.70;;;;;;6017382;29;19931;-60
2023/01/21 01:09:51;;;;;;;;;;;19.70;45.40;;;;;;6034237;29;20406;-60
2023/01/21 01:12:53;;;;;;;;;;;19.80;45.30;;;;;;6034509;29;19924;-60
2023/01/21 01:15:56;;;;;;;;;;;19.80;45.50;;;;;;6034262;29;19931;-60
2023/01/21 01:18:57;;;;;;;;;;;20.30;45.60;;;;;;6033966;29;20296;-60
2023/01/21 01:21:59;;;;;;;;;;;19.70;45.40;;;;;;6033597;29;19924;-61
2023/01/21 01:25:00;;;;;;;;;;;20.30;45.70;;;;;;6033837;29;19970;-60
2023/01/21 01:28:02;;;;;;;;;;;20.00;45.40;;;;;;6017283;29;19924;-60
2023/01/21 01:31:03;;;;;;;;;;;20.10;45.60;;;;;;6033677;29;19931;-60
2023/01/21 01:34:05;;;;;;;;;;;19.80;45.30;;;;;;6017203;29;20284;-60
2023/01/21 01:37:07;;;;;;;;;;;20.10;45.50;;;;;;6033620;29;19924;-61
2023/01/21 01:40:09;;;;;;;;;;;20.10;45.50;;;;;;6033708;29;19972;-60
2023/01/21 01:43:13;;;;;;;;;;;19.60;45.10;;;;;;6033679;29;20027;-60
2023/01/21 01:46:15;;;;;;;;;;;20.00;45.20;;;;;;6033315;29;19924;-61
2023/01/21 01:49:18;;;;;;;;;;;19.70;45.30;;;;;;6016714;29;20079;-60
2023/01/21 01:52:20;;;;;;;;;;;20.30;45.40;;;;;;6016852;29;19967;-59
2023/01/21 01:55:22;;;;;;;;;;;19.80;45.30;;;;;;6033093;29;20008;-60
2023/01/21 01:58:23;;;;;;;;;;;19.80;45.20;;;;;;6033088;29;20023;-60
2023/01/21 02:01:25;;;;;;;;;;;20.10;45.50;;;;;;6033575;29;19932;-60
2023/01/21 02:04:28;;;;;;;;;;;19.80;45.30;;;;;;6033206;29;19931;-60
2023/01/21 02:07:37;;;;;;;;;;;20.30;45.30;;;;;;6016581;29;20378;-60
2023/01/21 02:10:39;;;;;;;;;;;19.70;45.20;;;;;;6002102;29;19970;-60
2023/01/21 02:13:43;;;;;;;;;;;20.20;45.40;;;;;;6033014;29;19928;-59
2023/01/21 02:16:59;;;;;;;;;;;19.80;45.10;;;;;;6033089;29;19956;-60
2023/01/21 02:20:15;;;;;;;;;;;20.20;45.20;;;;;;6032729;29;19924;-60
2023/01/21 02:23:22;;;;;;;;;;;19.80;45.00;;;;;;6034474;29;19923;-60
2023/01/21 02:26:36;;;;;;;;;;;19.80;45.00;;;;;;6036749;29;20384;-59
2023/01/21 02:29:51;;;;;;;;;;;20.00;45.20;;;;;;6036737;29;19924;-60
2023/01/21 02:33:08;;;;;;;;;;;20.80;46.20;;;;;;6036666;29;19924;-60
2023/01/21 02:36:15;;;;;;;;;;;19.70;45.10;;;;;;6022827;29;19924;-60
2023/01/21 02:39:22;;;;;;;;;;;19.80;45.00;;;;;;6036561;29;19966;-59
2023/01/21 02:42:27;;;;;;;;;;;19.80;45.00;;;;;;6036586;29;19955;-59
2023/01/21 02:45:32;;;;;;;;;;;19.80;45.20;;;;;;6036480;29;19931;-60
2023/01/21 02:48:34;;;;;;;;;;;19.80;45.00;;;;;;6036201;29;19931;-59
2023/01/21 02:51:36;;;;;;;;;;;20.10;45.20;;;;;;6036466;29;20015;-60
2023/01/21 02:54:48;;;;;;;;;;;19.70;45.20;;;;;;6036507;29;19931;-59
2023/01/21 02:57:51;;;;;;;;;;;20.10;45.10;;;;;;6036213;29;20381;-59
2023/01/21 03:00:56;;;;;;;;;;;20.00;45.10;;;;;;6036326;29;19959;-59
2023/01/21 03:04:06;;;;;;;;;;;20.60;45.40;;;;;;6036231;29;19924;-59
2023/01/21 03:07:10;;;;;;;;;;;20.10;45.10;;;;;;6036800;29;20019;-59
2023/01/21 03:10:17;;;;;;;;;;;19.90;45.20;;;;;;6036265;29;20432;-59
2023/01/21 03:16:55;;;;;;;;;;;20.40;45.40;;;;;;6036082;29;19924;-59
2023/01/21 03:20:02;;;;;;;;;;;19.80;44.80;;;;;;6021391;29;19967;-59
2023/01/21 03:23:07;;;;;;;;;;;20.00;45.10;;;;;;6035949;29;20301;-59
2023/01/21 03:26:10;;;;;;;;;;;20.30;45.40;;;;;;6035902;29;19957;-59
2023/01/21 03:29:14;;;;;;;;;;;19.80;45.00;;;;;;6019401;29;19955;-59
2023/01/21 03:32:17;;;;;;;;;;;20.30;45.20;;;;;;6019275;29;19924;-59
2023/01/21 03:35:20;;;;;;;;;;;20.40;45.40;;;;;;6035677;29;19976;-59
2023/01/21 03:38:25;;;;;;;;;;;20.00;45.00;;;;;;6035995;29;20292;-59
2023/01/21 03:41:32;;;;;;;;;;;19.70;45.00;;;;;;6035628;29;19924;-59
2023/01/21 03:44:33;;;;;;;;;;;20.00;45.00;;;;;;6036356;29;19959;-59
2023/01/21 03:47:36;;;;;;;;;;;20.20;45.10;;;;;;6035636;29;20313;-59
2023/01/21 03:50:39;;;;;;;;;;;19.90;45.00;;;;;;6035683;29;19924;-59
2023/01/21 03:53:41;;;;;;;;;;;19.90;44.90;;;;;;6035394;29;19924;-59
2023/01/21 03:56:42;;;;;;;;;;;20.00;45.10;;;;;;6036148;29;19927;-59
2023/01/21 03:59:44;;;;;;;;;;;19.80;45.00;;;;;;6035409;29;19955;-59
2023/01/21 04:02:45;;;;;;;;;;;19.80;44.90;;;;;;6035171;29;19924;-59
2023/01/21 04:05:47;;;;;;;;;;;20.50;45.40;;;;;;6035939;29;19959;-59
2023/01/21 04:08:48;;;;;;;;;;;20.00;45.00;;;;;;6035253;29;20411;-59
2023/01/21 04:11:50;;;;;;;;;;;20.30;45.30;;;;;;6035034;29;19928;-59
2023/01/21 04:14:51;;;;;;;;;;;20.10;45.30;;;;;;6035658;29;19977;-59
2023/01/21 04:17:52;;;;;;;;;;;19.90;45.10;;;;;;6035215;29;19931;-59
2023/01/21 04:20:53;;;;;;;;;;;19.70;45.10;;;;;;6035610;29;20341;-59
2023/01/21 04:23:55;;;;;;;;;;;20.40;45.20;;;;;;6034761;29;19928;-59
2023/01/21 04:26:56;;;;;;;;;;;19.80;45.00;;;;;;6035142;29;20253;-59
2023/01/21 04:29:58;;;;;;;;;;;19.80;45.10;;;;;;6034843;29;20028;-59
2023/01/21 04:32:59;;;;;;;;;;;20.10;45.10;;;;;;6034655;29;19924;-59
2023/01/21 04:36:00;;;;;;;;;;;20.30;45.20;;;;;;6034836;29;19976;-59
2023/01/21 04:39:02;;;;;;;;;;;19.90;44.90;;;;;;6034714;29;19928;-59
2023/01/21 04:42:04;;;;;;;;;;;19.80;44.90;;;;;;6034535;29;19931;-59
2023/01/21 04:45:06;;;;;;;;;;;20.30;45.30;;;;;;6034231;29;19924;-59
2023/01/21 04:48:07;;;;;;;;;;;20.30;45.00;;;;;;6034620;29;20039;-59
2023/01/21 04:51:08;;;;;;;;;;;20.10;45.10;;;;;;6034383;29;20293;-59
2023/01/21 04:54:11;;;;;;;;;;;19.80;44.90;;;;;;6034649;29;19934;-59
2023/01/21 04:57:13;;;;;;;;;;;19.90;44.90;;;;;;6034479;29;19978;-59
2023/01/21 05:00:15;;;;;;;;;;;19.90;45.00;;;;;;6034377;29;19924;-59
2023/01/21 05:03:17;;;;;;;;;;;19.90;44.80;;;;;;6034491;29;19924;-58
2023/01/21 05:06:18;;;;;;;;;;;20.80;45.50;;;;;;6034393;29;20381;-59
2023/01/21 05:09:20;;;;;;;;;;;19.80;45.00;;;;;;6033686;29;19976;-59
2023/01/21 05:12:21;;;;;;;;;;;19.80;44.90;;;;;;6034380;29;20384;-59
2023/01/21 05:15:23;;;;;;;;;;;20.00;45.10;;;;;;6034241;29;19963;-58
2023/01/21 05:18:24;;;;;;;;;;;20.20;45.20;;;;;;6034648;29;19947;-59
2023/01/21 05:21:25;;;;;;;;;;;20.00;45.10;;;;;;6034243;29;19924;-59
2023/01/21 05:24:27;;;;;;;;;;;19.90;45.00;;;;;;6034577;29;20381;-59
2023/01/21 05:27:28;;;;;;;;;;;19.80;44.90;;;;;;6033761;29;19931;-58
2023/01/21 05:30:30;;;;;;;;;;;19.90;45.00;;;;;;6034161;29;20377;-59
2023/01/21 05:33:31;;;;;;;;;;;20.30;45.10;;;;;;6033842;29;19947;-59
2023/01/21 05:36:33;;;;;;;;;;;20.40;45.10;;;;;;6033848;29;19924;-59
2023/01/21 05:39:35;;;;;;;;;;;19.80;44.70;;;;;;6034208;29;19928;-59
2023/01/21 05:42:36;;;;;;;;;;;20.50;45.20;;;;;;6033723;29;19924;-59
2023/01/21 05:45:37;;;;;;;;;;;19.80;45.00;;;;;;6033629;29;20014;-59
2023/01/21 05:48:38;;;;;;;;;;;19.90;44.90;;;;;;6033913;29;20384;-59
2023/01/21 05:51:40;;;;;;;;;;;19.70;44.80;;;;;;6033490;29;19931;-59
2023/01/21 05:54:41;;;;;;;;;;;20.10;45.20;;;;;;6033456;29;19924;-59
2023/01/21 05:58:02;;;;;;;;;;;20.10;45.00;;;;;;6035616;29;19928;-59
2023/01/21 06:01:03;;;;;;;;;;;20.80;45.40;;;;;;6037882;29;20342;-59
2023/01/21 06:04:05;;;;;;;;;;;20.30;45.10;;;;;;6037395;29;19928;-59
2023/01/21 06:07:06;;;;;;;;;;;19.90;44.90;;;;;;6037563;29;20427;-59
2023/01/21 06:10:08;;;;;;;;;;;19.90;44.90;;;;;;6037287;29;19960;-59
2023/01/21 06:13:10;;;;;;;;;;;19.80;44.80;;;;;;6037940;29;19947;-59
2023/01/21 06:16:11;;;;;;;;;;;19.90;44.70;;;;;;6020790;29;20345;-59
2023/01/21 06:19:13;;;;;;;;;;;19.80;44.90;;;;;;6037271;29;19931;-59
2023/01/21 06:22:14;;;;;;;;;;;19.80;44.80;;;;;;6037164;29;20016;-59
2023/01/21 06:25:16;;;;;;;;;;;20.40;45.10;;;;;;6036959;29;19928;-59
2023/01/21 06:28:17;;;;;;;;;;;19.90;44.80;;;;;;6037033;29;19924;-59
2023/01/21 06:31:19;;;;;;;;;;;19.80;44.70;;;;;;6036905;29;19931;-59
2023/01/21 06:34:20;;;;;;;;;;;19.90;44.80;;;;;;6036729;29;19924;-59
2023/01/21 06:37:21;;;;;;;;;;;20.00;45.00;;;;;;6036882;29;19928;-59
2023/01/21 06:40:24;;;;;;;;;;;20.10;45.00;;;;;;6036796;29;19962;-59
2023/01/21 06:43:25;;;;;;;;;;;20.50;45.20;;;;;;6036656;29;20436;-59
2023/01/21 06:46:26;;;;;;;;;;;20.10;45.10;;;;;;6036815;29;19924;-59
2023/01/21 06:49:28;;;;;;;;;;;19.80;44.80;;;;;;6036569;29;19934;-59
2023/01/21 06:52:29;;;;;;;;;;;20.00;44.90;;;;;;6036440;29;19924;-59
2023/01/21 06:55:31;;;;;;;;;;;19.80;44.90;;;;;;6036697;29;19931;-59
2023/01/21 06:58:32;;;;;;;;;;;19.80;44.80;;;;;;6037204;29;20081;-59
2023/01/21 07:01:33;;;;;;;;;;;19.70;44.70;;;;;;6036280;29;19972;-59
2023/01/21 07:04:35;;;;;;;;;;;20.00;44.90;;;;;;6036500;29;19924;-59
2023/01/21 07:07:36;;;;;;;;;;;20.50;45.30;;;;;;6036634;29;20392;-59
2023/01/21 07:10:38;;;;;;;;;;;19.90;44.80;;;;;;6035823;29;19964;-59
2023/01/21 07:13:39;;;;;;;;;;;20.10;45.00;;;;;;6036540;29;20380;-59
2023/01/21 07:16:40;;;;;;;;;;;19.80;44.80;;;;;;6036185;29;19980;-59
2023/01/21 07:19:42;;;;;;;;;;;20.40;44.50;;;;;;6035887;29;20301;-59
2023/01/21 07:22:43;;;;;;;;;;;20.00;44.90;;;;;;6036158;29;20403;-59
2023/01/21 07:25:45;;;;;;;;;;;20.00;44.80;;;;;;6036015;29;19924;-59
2023/01/21 07:28:46;;;;;;;;;;;20.00;45.00;;;;;;6035702;29;19931;-59
2023/01/21 07:31:48;;;;;;;;;;;19.90;44.70;;;;;;6036011;29;19924;-59
2023/01/21 07:34:49;;;;;;;;;;;20.20;45.00;;;;;;6035729;29;19975;-59
2023/01/21 07:37:50;;;;;;;;;;;20.10;44.80;;;;;;6036308;29;20412;-59
2023/01/21 07:40:52;;;;;;;;;;;19.90;44.70;;;;;;6036002;29;20385;-59
2023/01/21 07:43:54;;;;;;;;;;;19.90;44.90;;;;;;6035652;29;20026;-58
2023/01/21 07:46:55;;;;;;;;;;;20.10;44.90;;;;;;6035402;29;19928;-59
2023/01/21 07:49:56;;;;;;;;;;;20.70;45.20;;;;;;6035694;29;19924;-59
2023/01/21 07:52:58;;;;;;;;;;;19.80;44.50;;;;;;6035539;29;19924;-59
2023/01/21 07:56:03;;;;;;;;;;;20.30;45.00;;;;;;6035287;29;19924;-59
2023/01/21 07:59:04;;;;;;;;;;;19.80;44.60;;;;;;6035545;29;19972;-59
2023/01/21 08:02:06;;;;;;;;;;;20.40;45.00;;;;;;6035676;29;19924;-59
2023/01/21 08:05:08;;;;;;;;;;;19.80;44.40;;;;;;6035158;29;20059;-59
2023/01/21 08:08:10;;;;;;;;;;;19.90;44.50;;;;;;6019358;29;20273;-59
2023/01/21 08:11:12;;;;;;;;;;;20.30;44.90;;;;;;6035841;29;20392;-59
2023/01/21 08:14:13;;;;;;;;;;;20.40;44.90;;;;;;6035739;29;19963;-58
2023/01/21 08:17:14;;;;;;;;;;;19.80;44.40;;;;;;6035256;29;19924;-59
2023/01/21 08:20:15;;;;;;;;;;;19.90;44.80;;;;;;6034049;29;19924;-59
2023/01/21 08:23:17;;;;;;;;;;;20.00;44.80;;;;;;6034911;29;19924;-59
2023/01/21 08:26:19;;;;;;;;;;;20.80;45.20;;;;;;6035099;29;19941;-59
2023/01/21 08:29:20;;;;;;;;;;;20.00;44.70;;;;;;6034697;29;19931;-59
2023/01/21 08:32:21;;;;;;;;;;;19.80;44.50;;;;;;6034754;29;20026;-59
2023/01/21 08:35:23;;;;;;;;;;;20.10;44.70;;;;;;6034914;29;20018;-58
2023/01/21 08:38:24;;;;;;;;;;;20.60;45.00;;;;;;6034582;29;19924;-59
2023/01/21 08:41:26;;;;;;;;;;;20.30;44.90;;;;;;6034889;29;20381;-59
2023/01/21 08:44:27;;;;;;;;;;;20.50;45.00;;;;;;6034804;29;19924;-59
2023/01/21 08:47:29;;;;;;;;;;;19.80;44.50;;;;;;6034776;29;20395;-58
2023/01/21 08:50:30;;;;;;;;;;;19.90;44.70;;;;;;6033874;29;19924;-59
2023/01/21 08:53:32;;;;;;;;;;;20.30;44.80;;;;;;6034686;29;19924;-59
2023/01/21 08:56:34;;;;;;;;;;;20.70;44.90;;;;;;6034365;29;20384;-59
2023/01/21 08:59:35;;;;;;;;;;;19.80;44.60;;;;;;6034261;29;19980;-59
2023/01/21 09:02:37;;;;;;;;;;;19.90;44.60;;;;;;6034441;29;19946;-59
2023/01/21 09:05:38;;;;;;;;;;;20.40;44.80;;;;;;6034098;29;20023;-59
2023/01/21 09:08:40;;;;;;;;;;;20.50;44.70;;;;;;6033976;29;20015;-59
2023/01/21 09:11:42;;;;;;;;;;;20.10;44.50;;;;;;6034270;29;19927;-60
2023/01/21 09:14:44;;;;;;;;;;;20.20;44.50;;;;;;6034081;29;20381;-59
2023/01/21 09:17:45;;;;;;;;;;;20.30;44.60;;;;;;6034702;29;20367;-59
2023/01/21 09:20:46;;;;;;;;;;;20.70;44.80;;;;;;6034176;29;19924;-59
2023/01/21 09:23:48;;;;;;;;;;;19.80;44.10;;;;;;6017010;29;19924;-59
2023/01/21 09:26:49;;;;;;;;;;;20.10;44.50;;;;;;6033776;29;20018;-59
2023/01/21 09:29:51;;;;;;;;;;;19.80;44.40;;;;;;6033525;29;19924;-59
2023/01/21 09:32:52;;;;;;;;;;;20.30;44.60;;;;;;6036807;29;19928;-59
2023/01/21 09:35:54;;;;;;;;;;;20.20;44.40;;;;;;6037927;29;19963;-59
2023/01/21 09:38:55;;;;;;;;;;;20.80;44.70;;;;;;6021290;29;20015;-59
2023/01/21 09:41:57;;;;;;;;;;;20.10;44.20;;;;;;6021315;29;19963;-59
2023/01/21 09:45:00;;;;;;;;;;;20.50;45.20;;;;;;6038073;29;19959;-59
2023/01/21 09:48:02;;;;;;;;;;;20.30;44.40;;;;;;6037431;29;19931;-59
2023/01/21 09:51:06;;;;;;;;;;;20.00;44.20;;;;;;6037746;29;19924;-59
2023/01/21 09:54:14;;;;;;;;;;;20.10;44.90;;;;;;6038122;29;19924;-59
2023/01/21 09:57:22;;;;;;;;;;;20.90;44.60;;;;;;6037316;29;19924;-59
2023/01/21 10:00:28;;;;;;;;;;;20.00;44.30;;;;;;6037841;29;20048;-59
2023/01/21 10:03:36;;;;;;;;;;;20.90;44.80;;;;;;6037451;29;19924;-59
2023/01/21 10:06:43;;;;;;;;;;;20.20;44.30;;;;;;6037603;29;19931;-59
2023/01/21 10:09:49;;;;;;;;;;;20.70;44.60;;;;;;6037313;29;19924;-59
2023/01/21 10:13:01;;;;;;;;;;;20.30;44.50;;;;;;6037214;29;19924;-59
2023/01/21 10:16:07;;;;;;;;;;;20.80;44.80;;;;;;6037118;29;20367;-59
2023/01/21 10:19:12;;;;;;;;;;;20.50;44.60;;;;;;6037428;29;19931;-59
2023/01/21 10:22:16;;;;;;;;;;;20.50;44.30;;;;;;6037220;29;20381;-59
2023/01/21 10:25:19;;;;;;;;;;;20.00;44.30;;;;;;6036951;29;19973;-59
2023/01/21 10:28:22;;;;;;;;;;;20.00;44.20;;;;;;6036698;29;19931;-59
2023/01/21 10:31:25;;;;;;;;;;;19.90;44.40;;;;;;6020492;29;19924;-59
2023/01/21 10:34:28;;;;;;;;;;;20.50;44.50;;;;;;6036897;29;19924;-60
2023/01/21 10:37:35;;;;;;;;;;;20.40;44.40;;;;;;6020476;29;19923;-59
2023/01/21 10:40:42;;;;;;;;;;;20.40;44.40;;;;;;6037369;29;19924;-59
2023/01/21 10:43:47;;;;;;;;;;;20.10;44.10;;;;;;6035948;29;19928;-59
2023/01/21 10:46:53;;;;;;;;;;;20.70;44.50;;;;;;6036498;29;19959;-59
2023/01/21 10:49:57;;;;;;;;;;;20.20;44.30;;;;;;6036695;29;19924;-59
2023/01/21 10:53:00;;;;;;;;;;;21.00;44.70;;;;;;6036527;29;19952;-59
2023/01/21 10:56:17;;;;;;;;;;;20.50;44.40;;;;;;6036389;29;19928;-59
2023/01/21 10:59:21;;;;;;;;;;;21.00;44.70;;;;;;6022004;29;19928;-59
2023/01/21 11:02:25;;;;;;;;;;;20.30;44.50;;;;;;6036788;29;20389;-59
2023/01/21 11:05:29;;;;;;;;;;;20.50;45.00;;;;;;6019986;29;19924;-59
2023/01/21 11:08:30;;;;;;;;;;;20.20;44.20;;;;;;6036407;29;19931;-59
2023/01/21 11:11:32;;;;;;;;;;;21.00;44.90;;;;;;6036282;29;19931;-59
2023/01/21 11:14:34;;;;;;;;;;;20.10;44.10;;;;;;6036112;29;20369;-59
2023/01/21 11:17:37;;;;;;;;;;;20.00;44.20;;;;;;6036399;29;19924;-59
2023/01/21 11:20:40;;;;;;;;;;;20.10;44.10;;;;;;6036093;29;19976;-59
2023/01/21 11:23:51;;;;;;;;;;;20.60;44.30;;;;;;6035988;29;20401;-59
2023/01/21 11:26:53;;;;;;;;;;;20.10;44.10;;;;;;6019332;29;19935;-59
2023/01/21 11:29:55;;;;;;;;;;;19.90;44.00;;;;;;6035918;29;19924;-59
2023/01/21 11:33:06;;;;;;;;;;;20.30;44.20;;;;;;6036165;29;20408;-59
2023/01/21 11:36:09;;;;;;;;;;;20.90;44.40;;;;;;6035732;29;19960;-59
2023/01/21 11:39:13;;;;;;;;;;;20.30;44.20;;;;;;6019275;29;19924;-59
2023/01/21 11:42:16;;;;;;;;;;;20.00;43.90;;;;;;6035652;29;19924;-59
2023/01/21 11:45:25;;;;;;;;;;;20.10;44.60;;;;;;6035707;29;19931;-59
2023/01/21 11:48:27;;;;;;;;;;;20.70;44.30;;;;;;6018558;29;19956;-59
2023/01/21 11:51:28;;;;;;;;;;;20.10;44.00;;;;;;6035823;29;19924;-59
2023/01/21 11:54:36;;;;;;;;;;;20.00;44.00;;;;;;6035474;29;19928;-59
2023/01/21 11:57:38;;;;;;;;;;;20.00;43.90;;;;;;6035286;29;20377;-59
2023/01/21 12:00:44;;;;;;;;;;;21.00;44.30;;;;;;6035140;29;19924;-59
2023/01/21 12:03:48;;;;;;;;;;;20.10;44.00;;;;;;6035370;29;20015;-59
2023/01/21 12:06:52;;;;;;;;;;;20.50;44.10;;;;;;6035220;29;20400;-59
2023/01/21 12:09:59;;;;;;;;;;;20.20;44.00;;;;;;6019448;29;20014;-59
2023/01/21 12:13:07;;;;;;;;;;;20.90;44.20;;;;;;6035278;29;19924;-59
2023/01/21 12:16:17;;;;;;;;;;;20.40;43.90;;;;;;6035123;29;19967;-59
2023/01/21 12:19:24;;;;;;;;;;;20.10;43.70;;;;;;6034949;29;19932;-59
2023/01/21 12:22:31;;;;;;;;;;;20.30;43.90;;;;;;6035441;29;19924;-59
2023/01/21 12:25:39;;;;;;;;;;;21.10;44.20;;;;;;6035347;29;20395;-59
2023/01/21 12:28:49;;;;;;;;;;;20.10;43.60;;;;;;6034744;29;19924;-59
2023/01/21 12:31:55;;;;;;;;;;;20.20;43.70;;;;;;6035308;29;20018;-59
2023/01/21 12:34:59;;;;;;;;;;;20.50;44.00;;;;;;6034815;29;20288;-59
2023/01/21 12:38:04;;;;;;;;;;;21.10;44.10;;;;;;6034681;29;19966;-59
2023/01/21 12:41:09;;;;;;;;;;;20.20;43.70;;;;;;6034927;29;19963;-59
2023/01/21 12:44:17;;;;;;;;;;;20.10;43.60;;;;;;6034698;29;19924;-59
2023/01/21 12:47:22;;;;;;;;;;;20.30;43.70;;;;;;6034536;29;19928;-59
2023/01/21 12:50:28;;;;;;;;;;;21.00;44.10;;;;;;6017750;29;19963;-59
2023/01/21 12:53:34;;;;;;;;;;;20.30;43.60;;;;;;6034823;29;19924;-59
2023/01/21 12:56:38;;;;;;;;;;;20.30;43.60;;;;;;6034409;29;20272;-59
2023/01/21 12:59:42;;;;;;;;;;;20.40;43.70;;;;;;6034199;29;19980;-59
2023/01/21 13:02:48;;;;;;;;;;;21.10;44.00;;;;;;6034518;29;19953;-59
2023/01/21 13:05:53;;;;;;;;;;;20.50;43.70;;;;;;6033664;29;20011;-59
2023/01/21 13:08:55;;;;;;;;;;;20.40;43.60;;;;;;6034059;29;20436;-59
2023/01/21 13:11:58;;;;;;;;;;;20.30;43.60;;;;;;6034344;29;20292;-59
2023/01/21 13:15:01;;;;;;;;;;;20.70;43.70;;;;;;6034025;29;19982;-59
2023/01/21 13:18:07;;;;;;;;;;;20.20;43.50;;;;;;6034336;29;19928;-59
2023/01/21 13:21:12;;;;;;;;;;;20.30;43.70;;;;;;6034240;29;19981;-59
2023/01/21 13:24:15;;;;;;;;;;;20.20;43.50;;;;;;6034339;29;20361;-59
2023/01/21 13:27:18;;;;;;;;;;;20.50;43.50;;;;;;6033686;29;19928;-59
2023/01/21 13:30:25;;;;;;;;;;;20.10;43.40;;;;;;6034043;29;19960;-59
2023/01/21 13:33:31;;;;;;;;;;;20.90;43.80;;;;;;6033829;29;19931;-59
2023/01/21 13:36:40;;;;;;;;;;;20.40;43.40;;;;;;6033825;29;20393;-59
2023/01/21 13:39:43;;;;;;;;;;;21.00;43.80;;;;;;6033564;29;19924;-59
2023/01/21 13:42:52;;;;;;;;;;;20.40;43.60;;;;;;6017490;29;20388;-59
2023/01/21 13:45:59;;;;;;;;;;;21.10;43.80;;;;;;6033683;29;19931;-59
2023/01/21 13:49:13;;;;;;;;;;;20.30;43.30;;;;;;6016990;29;19931;-59
2023/01/21 13:52:17;;;;;;;;;;;20.70;43.50;;;;;;6033999;29;19963;-59
2023/01/21 13:55:25;;;;;;;;;;;20.40;43.40;;;;;;6034282;29;20284;-59
2023/01/21 13:58:31;;;;;;;;;;;20.90;43.60;;;;;;6017100;29;19924;-59
2023/01/21 14:01:37;;;;;;;;;;;20.20;43.90;;;;;;6033690;29;19928;-59
2023/01/21 14:04:42;;;;;;;;;;;21.30;43.70;;;;;;6033424;29;19932;-59
2023/01/21 14:07:45;;;;;;;;;;;20.20;43.30;;;;;;6033266;29;19931;-59
2023/01/21 14:10:49;;;;;;;;;;;20.70;42.90;;;;;;6033554;29;19924;-59
2023/01/21 14:14:01;;;;;;;;;;;20.20;43.00;;;;;;6033287;29;20432;-59
2023/01/21 14:17:11;;;;;;;;;;;20.70;43.40;;;;;;6033264;29;19931;-59
2023/01/21 14:20:27;;;;;;;;;;;20.60;43.30;;;;;;6036285;29;19928;-59
2023/01/21 14:23:41;;;;;;;;;;;20.90;43.50;;;;;;6023113;29;20297;-59
2023/01/21 14:26:51;;;;;;;;;;;20.60;43.20;;;;;;6037044;29;20300;-59
2023/01/21 14:29:54;;;;;;;;;;;21.30;43.60;;;;;;6037014;29;19927;-59
2023/01/21 14:32:57;;;;;;;;;;;20.30;43.10;;;;;;6036861;29;19971;-59
2023/01/21 14:36:02;;;;;;;;;;;20.70;43.40;;;;;;6020258;29;19924;-59
2023/01/21 14:39:12;;;;;;;;;;;20.20;43.00;;;;;;6036952;29;19963;-59
2023/01/21 14:42:16;;;;;;;;;;;20.90;43.50;;;;;;6037370;29;19934;-59
2023/01/21 14:45:18;;;;;;;;;;;20.30;43.10;;;;;;6036433;29;19924;-59
2023/01/21 14:48:28;;;;;;;;;;;21.00;43.60;;;;;;6036736;29;19924;-59
2023/01/21 14:51:30;;;;;;;;;;;20.60;43.10;;;;;;6020906;29;20373;-59
2023/01/21 14:54:32;;;;;;;;;;;21.10;43.50;;;;;;6036611;29;19977;-59
2023/01/21 14:57:35;;;;;;;;;;;20.20;43.20;;;;;;6036477;29;19931;-59
2023/01/21 15:00:37;;;;;;;;;;;20.80;43.30;;;;;;6036703;29;19931;-59
2023/01/21 15:03:46;;;;;;;;;;;20.10;42.90;;;;;;6036464;29;20396;-59
2023/01/21 15:06:49;;;;;;;;;;;21.10;43.50;;;;;;6036282;29;19924;-59
2023/01/21 15:09:53;;;;;;;;;;;20.50;43.20;;;;;;6035954;29;20479;-59
2023/01/21 15:12:56;;;;;;;;;;;21.00;43.40;;;;;;6036383;29;19924;-58
2023/01/21 15:16:03;;;;;;;;;;;20.30;43.00;;;;;;6036206;29;19928;-59
2023/01/21 15:19:17;;;;;;;;;;;20.50;43.10;;;;;;6036739;29;19924;-59
2023/01/21 15:22:20;;;;;;;;;;;20.40;42.90;;;;;;6020631;29;20373;-59
2023/01/21 15:25:27;;;;;;;;;;;21.00;43.30;;;;;;6036223;29;20362;-59
2023/01/21 15:28:38;;;;;;;;;;;20.40;42.90;;;;;;6035781;29;19938;-59
2023/01/21 15:31:41;;;;;;;;;;;21.10;43.30;;;;;;6035818;29;20384;-59
2023/01/21 15:34:44;;;;;;;;;;;20.40;42.90;;;;;;6019262;29;19959;-59
2023/01/21 15:37:46;;;;;;;;;;;21.20;43.30;;;;;;6036005;29;19959;-59
2023/01/21 15:40:50;;;;;;;;;;;20.40;42.90;;;;;;6035811;29;19924;-59
2023/01/21 15:43:58;;;;;;;;;;;20.90;43.30;;;;;;6035537;29;19924;-59
2023/01/21 15:47:03;;;;;;;;;;;20.10;42.70;;;;;;6035881;29;19924;-59
2023/01/21 15:50:10;;;;;;;;;;;20.90;43.70;;;;;;6035635;29;20064;-59
2023/01/21 15:53:24;;;;;;;;;;;20.20;42.70;;;;;;6035296;29;19924;-59
2023/01/21 15:56:34;;;;;;;;;;;21.10;43.20;;;;;;6035634;29;19924;-59
2023/01/21 15:59:48;;;;;;;;;;;20.20;42.80;;;;;;6035374;29;19924;-59
2023/01/21 16:02:53;;;;;;;;;;;21.20;43.20;;;;;;6035335;29;19924;-59
2023/01/21 16:05:59;;;;;;;;;;;20.30;42.80;;;;;;6035306;29;20019;-59
2023/01/21 16:09:03;;;;;;;;;;;20.50;42.70;;;;;;6035080;29;19978;-59
2023/01/21 16:12:12;;;;;;;;;;;20.20;42.70;;;;;;6035367;29;19963;-59
2023/01/21 16:15:17;;;;;;;;;;;21.00;43.00;;;;;;6035069;29;19983;-59
2023/01/21 16:18:25;;;;;;;;;;;20.20;42.60;;;;;;6035002;29;19924;-59
2023/01/21 16:21:28;;;;;;;;;;;21.00;43.10;;;;;;6035351;29;20361;-59
2023/01/21 16:24:31;;;;;;;;;;;20.20;42.70;;;;;;6034975;29;19996;-59
2023/01/21 16:27:34;;;;;;;;;;;21.00;43.00;;;;;;6034877;29;19939;-59
2023/01/21 16:30:35;;;;;;;;;;;20.40;42.90;;;;;;6035052;29;19924;-59
2023/01/21 16:33:36;;;;;;;;;;;21.10;43.30;;;;;;6034812;29;19953;-59
2023/01/21 16:36:38;;;;;;;;;;;20.70;42.90;;;;;;6035082;29;19924;-59
2023/01/21 16:39:40;;;;;;;;;;;21.10;43.10;;;;;;6034970;29;19924;-59
2023/01/21 16:42:43;;;;;;;;;;;20.30;42.60;;;;;;6034389;29;20361;-59
2023/01/21 16:45:49;;;;;;;;;;;20.80;43.00;;;;;;6034873;29;19924;-59
2023/01/21 16:48:52;;;;;;;;;;;20.60;42.80;;;;;;6034348;29;20508;-59
2023/01/21 16:51:55;;;;;;;;;;;20.60;42.80;;;;;;6034632;29;19931;-59
2023/01/21 16:54:57;;;;;;;;;;;20.30;42.60;;;;;;6034463;29;20403;-59
2023/01/21 16:57:58;;;;;;;;;;;21.10;43.30;;;;;;6034220;29;19924;-59
2023/01/21 17:01:04;;;;;;;;;;;20.10;42.80;;;;;;6034505;29;19924;-59
2023/01/21 17:04:08;;;;;;;;;;;21.10;43.00;;;;;;6034325;29;20373;-59
2023/01/21 17:07:12;;;;;;;;;;;20.20;42.70;;;;;;6034116;29;19930;-59
2023/01/21 17:10:17;;;;;;;;;;;20.90;43.10;;;;;;6034270;29;19928;-59
2023/01/21 17:13:21;;;;;;;;;;;20.40;42.70;;;;;;6033961;29;19976;-59
2023/01/21 17:16:24;;;;;;;;;;;20.80;43.10;;;;;;6034021;29;20400;-59
2023/01/21 17:19:29;;;;;;;;;;;20.10;42.50;;;;;;6034284;29;19924;-59
2023/01/21 17:22:33;;;;;;;;;;;20.70;43.00;;;;;;6017611;29;20376;-59
2023/01/21 17:25:35;;;;;;;;;;;20.00;42.60;;;;;;6017531;29;19964;-59
2023/01/21 17:28:39;;;;;;;;;;;20.80;43.00;;;;;;6034099;29;20395;-59
2023/01/21 17:31:41;;;;;;;;;;;20.20;42.80;;;;;;6033871;29;19931;-59
2023/01/21 17:35:01;;;;;;;;;;;20.50;42.80;;;;;;6033698;29;19924;-59
2023/01/21 17:38:04;;;;;;;;;;;20.30;42.70;;;;;;6017583;29;19928;-59
2023/01/21 17:41:07;;;;;;;;;;;20.90;43.10;;;;;;6017309;29;19966;-59
2023/01/21 17:44:14;;;;;;;;;;;20.50;42.90;;;;;;6033689;29;20334;-59
2023/01/21 17:47:20;;;;;;;;;;;20.80;42.90;;;;;;6017118;29;20330;-59
2023/01/21 17:50:23;;;;;;;;;;;20.20;42.70;;;;;;6033688;29;19924;-59